sensor_id;sensor_type;location;lat;lon;timestamp;temperature;humidity
30290;DHT22;17105;55.652;37.710;2023-02-20T00:00:31;-0.80;80.20
30290;DHT22;17105;55.652;37.710;2023-02-20T00:01:06;-0.80;80.20
30290;DHT22;17105;55.652;37.710;2023-02-20T00:01:45;-0.80;80.10
30290;DHT22;17105;55.652;37.710;2023-02-20T00:02:20;-0.80;80.00
30290;DHT22;17105;55.652;37.710;2023-02-20T00:02:54;-0.80;80.10
30290;DHT22;17105;55.652;37.710;2023-02-20T00:03:29;-0.80;80.20
30290;DHT22;17105;55.652;37.710;2023-02-20T00:04:04;-0.80;80.30
30290;DHT22;17105;55.652;37.710;2023-02-20T00:04:38;-0.80;80.40
30290;DHT22;17105;55.652;37.710;2023-02-20T00:05:12;-0.80;80.50
30290;DHT22;17105;55.652;37.710;2023-02-20T00:05:46;-0.80;80.50
30290;DHT22;17105;55.652;37.710;2023-02-20T00:06:20;-0.80;80.40
30290;DHT22;17105;55.652;37.710;2023-02-20T00:06:56;-0.80;80.30
30290;DHT22;17105;55.652;37.710;2023-02-20T00:07:32;-0.80;80.40
30290;DHT22;17105;55.652;37.710;2023-02-20T00:08:06;-0.80;80.40
30290;DHT22;17105;55.652;37.710;2023-02-20T00:08:41;-0.80;80.30
30290;DHT22;17105;55.652;37.710;2023-02-20T00:09:17;-0.80;80.10
30290;DHT22;17105;55.652;37.710;2023-02-20T00:09:51;-0.90;80.10
30290;DHT22;17105;55.652;37.710;2023-02-20T00:10:25;-0.80;80.00
30290;DHT22;17105;55.652;37.710;2023-02-20T00:11:00;-0.80;79.90
30290;DHT22;17105;55.652;37.710;2023-02-20T00:11:35;-0.80;79.70
30290;DHT22;17105;55.652;37.710;2023-02-20T00:12:11;-0.80;79.50
30290;DHT22;17105;55.652;37.710;2023-02-20T00:12:45;-0.80;79.40
30290;DHT22;17105;55.652;37.710;2023-02-20T00:13:19;-0.80;79.30
30290;DHT22;17105;55.652;37.710;2023-02-20T00:13:53;-0.80;79.30
30290;DHT22;17105;55.652;37.710;2023-02-20T00:14:28;-0.80;79.20
30290;DHT22;17105;55.652;37.710;2023-02-20T00:15:02;-0.80;79.40
30290;DHT22;17105;55.652;37.710;2023-02-20T00:15:37;-0.80;79.50
30290;DHT22;17105;55.652;37.710;2023-02-20T00:16:11;-0.80;79.50
30290;DHT22;17105;55.652;37.710;2023-02-20T00:16:46;-0.90;79.50
30290;DHT22;17105;55.652;37.710;2023-02-20T00:17:20;-0.80;79.50
30290;DHT22;17105;55.652;37.710;2023-02-20T00:17:57;-0.80;79.30
30290;DHT22;17105;55.652;37.710;2023-02-20T00:18:31;-0.80;79.20
30290;DHT22;17105;55.652;37.710;2023-02-20T00:19:05;-0.80;79.20
30290;DHT22;17105;55.652;37.710;2023-02-20T00:19:42;-0.80;79.10
30290;DHT22;17105;55.652;37.710;2023-02-20T00:20:18;-0.80;79.00
30290;DHT22;17105;55.652;37.710;2023-02-20T00:20:53;-0.80;79.00
30290;DHT22;17105;55.652;37.710;2023-02-20T00:21:28;-0.80;78.90
30290;DHT22;17105;55.652;37.710;2023-02-20T00:22:01;-0.80;78.80
30290;DHT22;17105;55.652;37.710;2023-02-20T00:22:37;-0.80;78.70
30290;DHT22;17105;55.652;37.710;2023-02-20T00:23:12;-0.80;78.70
30290;DHT22;17105;55.652;37.710;2023-02-20T00:23:46;-0.80;78.70
30290;DHT22;17105;55.652;37.710;2023-02-20T00:24:25;-0.80;78.60
30290;DHT22;17105;55.652;37.710;2023-02-20T00:25:00;-0.80;78.40
30290;DHT22;17105;55.652;37.710;2023-02-20T00:25:34;-0.80;78.30
30290;DHT22;17105;55.652;37.710;2023-02-20T00:26:09;-0.80;78.30
30290;DHT22;17105;55.652;37.710;2023-02-20T00:26:48;-0.80;78.30
30290;DHT22;17105;55.652;37.710;2023-02-20T00:27:23;-0.80;78.30
30290;DHT22;17105;55.652;37.710;2023-02-20T00:27:56;-0.80;78.30
30290;DHT22;17105;55.652;37.710;2023-02-20T00:28:31;-0.80;78.40
30290;DHT22;17105;55.652;37.710;2023-02-20T00:29:06;-0.90;79.00
30290;DHT22;17105;55.652;37.710;2023-02-20T00:29:40;-0.90;78.70
30290;DHT22;17105;55.652;37.710;2023-02-20T00:30:16;-0.90;78.80
30290;DHT22;17105;55.652;37.710;2023-02-20T00:30:51;-0.90;78.90
30290;DHT22;17105;55.652;37.710;2023-02-20T00:31:24;-0.90;78.90
30290;DHT22;17105;55.652;37.710;2023-02-20T00:31:59;-0.90;79.00
30290;DHT22;17105;55.652;37.710;2023-02-20T00:32:37;-0.90;79.00
30290;DHT22;17105;55.652;37.710;2023-02-20T00:33:12;-0.90;79.00
30290;DHT22;17105;55.652;37.710;2023-02-20T00:33:46;-0.90;78.80
30290;DHT22;17105;55.652;37.710;2023-02-20T00:34:20;-0.90;78.70
30290;DHT22;17105;55.652;37.710;2023-02-20T00:34:53;-0.90;78.60
30290;DHT22;17105;55.652;37.710;2023-02-20T00:35:28;-1.00;78.50
30290;DHT22;17105;55.652;37.710;2023-02-20T00:36:01;-1.00;78.50
30290;DHT22;17105;55.652;37.710;2023-02-20T00:36:36;-1.00;78.50
30290;DHT22;17105;55.652;37.710;2023-02-20T00:37:12;-1.00;78.50
30290;DHT22;17105;55.652;37.710;2023-02-20T00:37:46;-1.00;78.50
30290;DHT22;17105;55.652;37.710;2023-02-20T00:38:21;-1.00;78.40
30290;DHT22;17105;55.652;37.710;2023-02-20T00:38:56;-1.00;78.30
30290;DHT22;17105;55.652;37.710;2023-02-20T00:39:31;-1.00;78.20
30290;DHT22;17105;55.652;37.710;2023-02-20T00:40:07;-1.00;78.20
30290;DHT22;17105;55.652;37.710;2023-02-20T00:40:41;-1.00;78.30
30290;DHT22;17105;55.652;37.710;2023-02-20T00:41:17;-1.00;78.40
30290;DHT22;17105;55.652;37.710;2023-02-20T00:41:54;-1.00;78.40
30290;DHT22;17105;55.652;37.710;2023-02-20T00:42:29;-1.00;78.50
30290;DHT22;17105;55.652;37.710;2023-02-20T00:43:03;-1.00;78.60
30290;DHT22;17105;55.652;37.710;2023-02-20T00:43:39;-1.00;78.60
30290;DHT22;17105;55.652;37.710;2023-02-20T00:44:13;-1.00;78.60
30290;DHT22;17105;55.652;37.710;2023-02-20T00:44:47;-1.00;78.50
30290;DHT22;17105;55.652;37.710;2023-02-20T00:45:22;-1.00;78.90
30290;DHT22;17105;55.652;37.710;2023-02-20T00:45:56;-1.00;78.30
30290;DHT22;17105;55.652;37.710;2023-02-20T00:46:31;-1.00;78.20
30290;DHT22;17105;55.652;37.710;2023-02-20T00:47:06;-0.90;78.20
30290;DHT22;17105;55.652;37.710;2023-02-20T00:47:40;-1.00;78.10
30290;DHT22;17105;55.652;37.710;2023-02-20T00:48:15;-1.00;78.00
30290;DHT22;17105;55.652;37.710;2023-02-20T00:48:48;-0.90;78.00
30290;DHT22;17105;55.652;37.710;2023-02-20T00:49:42;-0.90;77.90
30290;DHT22;17105;55.652;37.710;2023-02-20T00:50:19;-1.00;77.80
30290;DHT22;17105;55.652;37.710;2023-02-20T00:50:53;-1.00;77.80
30290;DHT22;17105;55.652;37.710;2023-02-20T00:51:27;-1.00;77.70
30290;DHT22;17105;55.652;37.710;2023-02-20T00:52:03;-1.00;77.70
30290;DHT22;17105;55.652;37.710;2023-02-20T00:52:40;-1.00;77.70
30290;DHT22;17105;55.652;37.710;2023-02-20T00:53:16;-1.00;77.60
30290;DHT22;17105;55.652;37.710;2023-02-20T00:53:50;-1.00;77.60
30290;DHT22;17105;55.652;37.710;2023-02-20T00:54:23;-1.00;77.60
30290;DHT22;17105;55.652;37.710;2023-02-20T00:54:59;-1.00;77.70
30290;DHT22;17105;55.652;37.710;2023-02-20T00:55:34;-1.00;77.80
30290;DHT22;17105;55.652;37.710;2023-02-20T00:56:08;-1.00;77.80
30290;DHT22;17105;55.652;37.710;2023-02-20T00:56:44;-1.00;77.90
30290;DHT22;17105;55.652;37.710;2023-02-20T00:57:17;-1.00;77.90
30290;DHT22;17105;55.652;37.710;2023-02-20T00:57:52;-1.00;77.90
30290;DHT22;17105;55.652;37.710;2023-02-20T00:58:27;-1.00;78.00
30290;DHT22;17105;55.652;37.710;2023-02-20T00:59:02;-1.00;78.10
30290;DHT22;17105;55.652;37.710;2023-02-20T00:59:36;-1.00;78.20
30290;DHT22;17105;55.652;37.710;2023-02-20T01:00:17;-1.00;78.20
30290;DHT22;17105;55.652;37.710;2023-02-20T01:00:52;-1.00;78.40
30290;DHT22;17105;55.652;37.710;2023-02-20T01:01:27;-1.00;78.40
30290;DHT22;17105;55.652;37.710;2023-02-20T01:02:02;-1.00;78.30
30290;DHT22;17105;55.652;37.710;2023-02-20T01:02:36;-1.00;78.30
30290;DHT22;17105;55.652;37.710;2023-02-20T01:03:10;-1.00;78.20
30290;DHT22;17105;55.652;37.710;2023-02-20T01:03:45;-1.00;78.20
30290;DHT22;17105;55.652;37.710;2023-02-20T01:04:19;-1.00;78.70
30290;DHT22;17105;55.652;37.710;2023-02-20T01:04:54;-1.00;78.20
30290;DHT22;17105;55.652;37.710;2023-02-20T01:05:28;-1.00;78.10
30290;DHT22;17105;55.652;37.710;2023-02-20T01:06:03;-1.00;78.20
30290;DHT22;17105;55.652;37.710;2023-02-20T01:06:38;-1.00;78.00
30290;DHT22;17105;55.652;37.710;2023-02-20T01:07:12;-1.00;77.90
30290;DHT22;17105;55.652;37.710;2023-02-20T01:07:46;-1.00;77.90
30290;DHT22;17105;55.652;37.710;2023-02-20T01:08:21;-1.00;77.90
30290;DHT22;17105;55.652;37.710;2023-02-20T01:08:55;-1.00;77.80
30290;DHT22;17105;55.652;37.710;2023-02-20T01:09:29;-0.90;77.80
30290;DHT22;17105;55.652;37.710;2023-02-20T01:10:08;-0.90;77.80
30290;DHT22;17105;55.652;37.710;2023-02-20T01:10:43;-0.90;77.70
30290;DHT22;17105;55.652;37.710;2023-02-20T01:11:16;-0.90;77.70
30290;DHT22;17105;55.652;37.710;2023-02-20T01:11:50;-0.90;77.70
30290;DHT22;17105;55.652;37.710;2023-02-20T01:12:25;-0.90;77.70
30290;DHT22;17105;55.652;37.710;2023-02-20T01:12:59;-0.90;77.80
30290;DHT22;17105;55.652;37.710;2023-02-20T01:13:34;-0.90;77.70
30290;DHT22;17105;55.652;37.710;2023-02-20T01:14:11;-1.00;77.70
30290;DHT22;17105;55.652;37.710;2023-02-20T01:14:45;-0.90;77.70
30290;DHT22;17105;55.652;37.710;2023-02-20T01:15:19;-0.90;77.60
30290;DHT22;17105;55.652;37.710;2023-02-20T01:15:53;-0.90;77.60
30290;DHT22;17105;55.652;37.710;2023-02-20T01:16:27;-0.90;77.60
30290;DHT22;17105;55.652;37.710;2023-02-20T01:17:03;-0.90;77.60
30290;DHT22;17105;55.652;37.710;2023-02-20T01:17:38;-1.00;77.50
30290;DHT22;17105;55.652;37.710;2023-02-20T01:18:12;-1.00;77.60
30290;DHT22;17105;55.652;37.710;2023-02-20T01:18:49;-1.00;77.60
30290;DHT22;17105;55.652;37.710;2023-02-20T01:19:24;-0.90;77.50
30290;DHT22;17105;55.652;37.710;2023-02-20T01:19:58;-0.90;77.40
30290;DHT22;17105;55.652;37.710;2023-02-20T01:20:33;-1.00;77.20
30290;DHT22;17105;55.652;37.710;2023-02-20T01:21:09;-1.00;77.20
30290;DHT22;17105;55.652;37.710;2023-02-20T01:21:43;-1.00;77.20
30290;DHT22;17105;55.652;37.710;2023-02-20T01:22:17;-1.10;77.10
30290;DHT22;17105;55.652;37.710;2023-02-20T01:22:54;-1.00;77.20
30290;DHT22;17105;55.652;37.710;2023-02-20T01:23:27;-1.10;77.10
30290;DHT22;17105;55.652;37.710;2023-02-20T01:24:02;-1.00;77.30
30290;DHT22;17105;55.652;37.710;2023-02-20T01:24:36;-1.10;77.30
30290;DHT22;17105;55.652;37.710;2023-02-20T01:25:11;-1.10;77.40
30290;DHT22;17105;55.652;37.710;2023-02-20T01:25:48;-1.10;77.50
30290;DHT22;17105;55.652;37.710;2023-02-20T01:26:22;-1.10;77.60
30290;DHT22;17105;55.652;37.710;2023-02-20T01:26:56;-1.10;77.60
30290;DHT22;17105;55.652;37.710;2023-02-20T01:27:31;-1.10;77.70
30290;DHT22;17105;55.652;37.710;2023-02-20T01:28:05;-1.10;77.80
30290;DHT22;17105;55.652;37.710;2023-02-20T01:28:43;-1.10;77.80
30290;DHT22;17105;55.652;37.710;2023-02-20T01:29:19;-1.10;77.90
30290;DHT22;17105;55.652;37.710;2023-02-20T01:29:52;-1.10;78.00
30290;DHT22;17105;55.652;37.710;2023-02-20T01:30:25;-1.10;78.20
30290;DHT22;17105;55.652;37.710;2023-02-20T01:31:00;-1.10;78.10
30290;DHT22;17105;55.652;37.710;2023-02-20T01:31:37;-1.10;78.10
30290;DHT22;17105;55.652;37.710;2023-02-20T01:32:13;-1.10;78.10
30290;DHT22;17105;55.652;37.710;2023-02-20T01:32:48;-1.10;78.00
30290;DHT22;17105;55.652;37.710;2023-02-20T01:33:22;-1.10;78.10
30290;DHT22;17105;55.652;37.710;2023-02-20T01:33:56;-1.10;78.20
30290;DHT22;17105;55.652;37.710;2023-02-20T01:34:31;-1.10;78.30
30290;DHT22;17105;55.652;37.710;2023-02-20T01:35:05;-1.10;78.30
30290;DHT22;17105;55.652;37.710;2023-02-20T01:35:38;-1.20;78.10
30290;DHT22;17105;55.652;37.710;2023-02-20T01:36:13;-1.20;78.20
30290;DHT22;17105;55.652;37.710;2023-02-20T01:36:49;-1.20;78.30
30290;DHT22;17105;55.652;37.710;2023-02-20T01:37:22;-1.20;78.20
30290;DHT22;17105;55.652;37.710;2023-02-20T01:37:57;-1.20;78.10
30290;DHT22;17105;55.652;37.710;2023-02-20T01:38:31;-1.20;78.20
30290;DHT22;17105;55.652;37.710;2023-02-20T01:39:07;-1.20;78.20
30290;DHT22;17105;55.652;37.710;2023-02-20T01:39:42;-1.20;78.10
30290;DHT22;17105;55.652;37.710;2023-02-20T01:40:21;-1.20;78.00
30290;DHT22;17105;55.652;37.710;2023-02-20T01:40:56;-1.20;77.90
30290;DHT22;17105;55.652;37.710;2023-02-20T01:41:30;-1.20;78.50
30290;DHT22;17105;55.652;37.710;2023-02-20T01:42:07;-1.20;77.90
30290;DHT22;17105;55.652;37.710;2023-02-20T01:42:44;-1.20;77.90
30290;DHT22;17105;55.652;37.710;2023-02-20T01:43:18;-1.20;77.90
30290;DHT22;17105;55.652;37.710;2023-02-20T01:43:54;-1.20;77.90
30290;DHT22;17105;55.652;37.710;2023-02-20T01:44:30;-1.20;77.90
30290;DHT22;17105;55.652;37.710;2023-02-20T01:45:18;-1.10;78.00
30290;DHT22;17105;55.652;37.710;2023-02-20T01:45:53;-1.10;78.00
30290;DHT22;17105;55.652;37.710;2023-02-20T01:46:43;-1.20;77.90
30290;DHT22;17105;55.652;37.710;2023-02-20T01:47:20;-1.10;77.90
30290;DHT22;17105;55.652;37.710;2023-02-20T01:47:56;-1.10;77.90
30290;DHT22;17105;55.652;37.710;2023-02-20T01:48:31;-1.10;77.80
30290;DHT22;17105;55.652;37.710;2023-02-20T01:49:08;-1.10;77.70
30290;DHT22;17105;55.652;37.710;2023-02-20T01:49:47;-1.10;77.70
30290;DHT22;17105;55.652;37.710;2023-02-20T01:50:27;-1.10;77.60
30290;DHT22;17105;55.652;37.710;2023-02-20T01:51:02;-1.10;77.70
30290;DHT22;17105;55.652;37.710;2023-02-20T01:51:44;-1.10;77.60
30290;DHT22;17105;55.652;37.710;2023-02-20T01:52:23;-1.10;78.10
30290;DHT22;17105;55.652;37.710;2023-02-20T01:53:03;-1.10;77.50
30290;DHT22;17105;55.652;37.710;2023-02-20T01:53:37;-1.10;77.40
30290;DHT22;17105;55.652;37.710;2023-02-20T01:54:16;-1.10;77.30
30290;DHT22;17105;55.652;37.710;2023-02-20T01:54:53;-1.10;77.30
30290;DHT22;17105;55.652;37.710;2023-02-20T01:55:34;-1.10;77.30
30290;DHT22;17105;55.652;37.710;2023-02-20T01:56:10;-1.10;77.30
30290;DHT22;17105;55.652;37.710;2023-02-20T01:56:47;-1.00;77.30
30290;DHT22;17105;55.652;37.710;2023-02-20T01:57:23;-1.00;77.30
30290;DHT22;17105;55.652;37.710;2023-02-20T01:58:01;-1.10;77.20
30290;DHT22;17105;55.652;37.710;2023-02-20T01:58:40;-1.00;77.30
30290;DHT22;17105;55.652;37.710;2023-02-20T01:59:16;-1.00;77.20
30290;DHT22;17105;55.652;37.710;2023-02-20T01:59:54;-1.10;77.10
30290;DHT22;17105;55.652;37.710;2023-02-20T02:00:31;-1.10;77.20
30290;DHT22;17105;55.652;37.710;2023-02-20T02:01:04;-1.10;77.30
30290;DHT22;17105;55.652;37.710;2023-02-20T02:01:39;-1.10;77.40
30290;DHT22;17105;55.652;37.710;2023-02-20T02:02:13;-1.10;77.40
30290;DHT22;17105;55.652;37.710;2023-02-20T02:02:49;-1.10;77.50
30290;DHT22;17105;55.652;37.710;2023-02-20T02:03:27;-1.10;77.60
30290;DHT22;17105;55.652;37.710;2023-02-20T02:04:08;-1.20;77.60
30290;DHT22;17105;55.652;37.710;2023-02-20T02:04:43;-1.20;78.20
30290;DHT22;17105;55.652;37.710;2023-02-20T02:05:18;-1.10;77.70
30290;DHT22;17105;55.652;37.710;2023-02-20T02:05:53;-1.10;77.80
30290;DHT22;17105;55.652;37.710;2023-02-20T02:06:29;-1.10;77.60
30290;DHT22;17105;55.652;37.710;2023-02-20T02:07:07;-1.10;77.50
30290;DHT22;17105;55.652;37.710;2023-02-20T02:07:41;-1.20;77.40
30290;DHT22;17105;55.652;37.710;2023-02-20T02:08:17;-1.20;77.40
30290;DHT22;17105;55.652;37.710;2023-02-20T02:08:53;-1.20;77.60
30290;DHT22;17105;55.652;37.710;2023-02-20T02:09:36;-1.20;77.60
30290;DHT22;17105;55.652;37.710;2023-02-20T02:10:14;-1.20;77.60
30290;DHT22;17105;55.652;37.710;2023-02-20T02:10:53;-1.20;77.60
30290;DHT22;17105;55.652;37.710;2023-02-20T02:11:29;-1.10;77.70
30290;DHT22;17105;55.652;37.710;2023-02-20T02:12:08;-1.20;77.50
30290;DHT22;17105;55.652;37.710;2023-02-20T02:12:45;-1.10;77.50
30290;DHT22;17105;55.652;37.710;2023-02-20T02:13:20;-1.10;77.40
30290;DHT22;17105;55.652;37.710;2023-02-20T02:13:59;-1.10;77.30
30290;DHT22;17105;55.652;37.710;2023-02-20T02:14:39;-1.00;77.30
30290;DHT22;17105;55.652;37.710;2023-02-20T02:15:37;-1.10;77.20
30290;DHT22;17105;55.652;37.710;2023-02-20T02:16:20;-1.10;77.00
30290;DHT22;17105;55.652;37.710;2023-02-20T02:19:15;-1.20;76.90
30290;DHT22;17105;55.652;37.710;2023-02-20T02:20:30;-1.20;76.90
30290;DHT22;17105;55.652;37.710;2023-02-20T02:22:53;-1.20;76.70
30290;DHT22;17105;55.652;37.710;2023-02-20T02:24:11;-1.30;77.00
30290;DHT22;17105;55.652;37.710;2023-02-20T02:25:14;-1.30;77.30
30290;DHT22;17105;55.652;37.710;2023-02-20T02:26:00;-1.40;77.40
30290;DHT22;17105;55.652;37.710;2023-02-20T02:28:29;-1.30;77.60
30290;DHT22;17105;55.652;37.710;2023-02-20T02:31:53;-1.30;77.30
30290;DHT22;17105;55.652;37.710;2023-02-20T02:34:05;-1.20;77.30
30290;DHT22;17105;55.652;37.710;2023-02-20T02:36:26;-1.20;76.90
30290;DHT22;17105;55.652;37.710;2023-02-20T02:37:14;-1.20;76.90
30290;DHT22;17105;55.652;37.710;2023-02-20T02:38:02;-1.20;76.80
30290;DHT22;17105;55.652;37.710;2023-02-20T02:38:44;-1.20;76.70
30290;DHT22;17105;55.652;37.710;2023-02-20T02:39:25;-1.20;76.50
30290;DHT22;17105;55.652;37.710;2023-02-20T02:40:11;-1.20;76.60
30290;DHT22;17105;55.652;37.710;2023-02-20T02:40:52;-1.30;76.60
30290;DHT22;17105;55.652;37.710;2023-02-20T02:41:40;-1.30;76.60
30290;DHT22;17105;55.652;37.710;2023-02-20T02:42:27;-1.30;76.70
30290;DHT22;17105;55.652;37.710;2023-02-20T02:43:08;-1.30;76.70
30290;DHT22;17105;55.652;37.710;2023-02-20T02:43:49;-1.30;76.70
30290;DHT22;17105;55.652;37.710;2023-02-20T02:44:31;-1.30;76.80
30290;DHT22;17105;55.652;37.710;2023-02-20T02:45:08;-1.30;76.80
30290;DHT22;17105;55.652;37.710;2023-02-20T02:45:50;-1.30;76.80
30290;DHT22;17105;55.652;37.710;2023-02-20T02:46:29;-1.30;76.80
30290;DHT22;17105;55.652;37.710;2023-02-20T02:47:12;-1.30;76.90
30290;DHT22;17105;55.652;37.710;2023-02-20T02:47:55;-1.30;76.80
30290;DHT22;17105;55.652;37.710;2023-02-20T02:48:35;-1.30;76.80
30290;DHT22;17105;55.652;37.710;2023-02-20T02:49:18;-1.30;76.90
30290;DHT22;17105;55.652;37.710;2023-02-20T02:49:55;-1.30;76.90
30290;DHT22;17105;55.652;37.710;2023-02-20T02:50:35;-1.30;76.90
30290;DHT22;17105;55.652;37.710;2023-02-20T02:51:17;-1.30;76.80
30290;DHT22;17105;55.652;37.710;2023-02-20T02:51:53;-1.30;76.80
30290;DHT22;17105;55.652;37.710;2023-02-20T02:52:27;-1.30;76.80
30290;DHT22;17105;55.652;37.710;2023-02-20T02:53:18;-1.30;76.70
30290;DHT22;17105;55.652;37.710;2023-02-20T02:54:08;-1.30;76.80
30290;DHT22;17105;55.652;37.710;2023-02-20T02:54:46;-1.30;76.90
30290;DHT22;17105;55.652;37.710;2023-02-20T02:55:25;-1.30;77.00
30290;DHT22;17105;55.652;37.710;2023-02-20T02:55:59;-1.30;76.90
30290;DHT22;17105;55.652;37.710;2023-02-20T02:57:20;-1.30;77.00
30290;DHT22;17105;55.652;37.710;2023-02-20T02:57:59;-1.20;77.10
30290;DHT22;17105;55.652;37.710;2023-02-20T02:58:32;-1.20;77.20
30290;DHT22;17105;55.652;37.710;2023-02-20T02:59:08;-1.20;77.10
30290;DHT22;17105;55.652;37.710;2023-02-20T02:59:46;-1.20;77.00
30290;DHT22;17105;55.652;37.710;2023-02-20T03:00:27;-1.20;77.00
30290;DHT22;17105;55.652;37.710;2023-02-20T03:01:02;-1.20;77.00
30290;DHT22;17105;55.652;37.710;2023-02-20T03:01:41;-1.20;77.00
30290;DHT22;17105;55.652;37.710;2023-02-20T03:02:43;-1.20;77.10
30290;DHT22;17105;55.652;37.710;2023-02-20T03:03:22;-1.20;77.20
30290;DHT22;17105;55.652;37.710;2023-02-20T03:03:58;-1.20;77.10
30290;DHT22;17105;55.652;37.710;2023-02-20T03:04:37;-1.20;77.10
30290;DHT22;17105;55.652;37.710;2023-02-20T03:05:18;-1.20;76.90
30290;DHT22;17105;55.652;37.710;2023-02-20T03:06:19;-1.20;76.80
30290;DHT22;17105;55.652;37.710;2023-02-20T03:07:01;-1.20;76.70
30290;DHT22;17105;55.652;37.710;2023-02-20T03:07:44;-1.20;76.60
30290;DHT22;17105;55.652;37.710;2023-02-20T03:08:26;-1.20;76.60
30290;DHT22;17105;55.652;37.710;2023-02-20T03:09:13;-1.20;76.60
30290;DHT22;17105;55.652;37.710;2023-02-20T03:09:58;-1.20;76.60
30290;DHT22;17105;55.652;37.710;2023-02-20T03:10:43;-1.20;76.60
30290;DHT22;17105;55.652;37.710;2023-02-20T03:11:21;-1.20;76.70
30290;DHT22;17105;55.652;37.710;2023-02-20T03:11:56;-1.20;76.70
30290;DHT22;17105;55.652;37.710;2023-02-20T03:12:38;-1.20;76.70
30290;DHT22;17105;55.652;37.710;2023-02-20T03:13:13;-1.20;76.80
30290;DHT22;17105;55.652;37.710;2023-02-20T03:13:56;-1.30;76.80
30290;DHT22;17105;55.652;37.710;2023-02-20T03:14:57;-1.30;77.00
30290;DHT22;17105;55.652;37.710;2023-02-20T03:15:51;-1.30;77.20
30290;DHT22;17105;55.652;37.710;2023-02-20T03:16:40;-1.30;77.40
30290;DHT22;17105;55.652;37.710;2023-02-20T03:18:35;-1.30;77.30
30290;DHT22;17105;55.652;37.710;2023-02-20T03:19:16;-1.20;77.10
30290;DHT22;17105;55.652;37.710;2023-02-20T03:19:57;-1.20;77.00
30290;DHT22;17105;55.652;37.710;2023-02-20T03:20:31;-1.20;76.90
30290;DHT22;17105;55.652;37.710;2023-02-20T03:21:10;-1.20;76.90
30290;DHT22;17105;55.652;37.710;2023-02-20T03:21:47;-1.20;76.80
30290;DHT22;17105;55.652;37.710;2023-02-20T03:22:24;-1.20;76.80
30290;DHT22;17105;55.652;37.710;2023-02-20T03:23:02;-1.20;76.70
30290;DHT22;17105;55.652;37.710;2023-02-20T03:23:41;-1.20;76.80
30290;DHT22;17105;55.652;37.710;2023-02-20T03:24:21;-1.20;76.70
30290;DHT22;17105;55.652;37.710;2023-02-20T03:25:01;-1.30;76.70
30290;DHT22;17105;55.652;37.710;2023-02-20T03:25:50;-1.30;76.80
30290;DHT22;17105;55.652;37.710;2023-02-20T03:26:34;-1.40;77.10
30290;DHT22;17105;55.652;37.710;2023-02-20T03:27:11;-1.40;77.30
30290;DHT22;17105;55.652;37.710;2023-02-20T03:27:48;-1.40;77.30
30290;DHT22;17105;55.652;37.710;2023-02-20T03:28:29;-1.40;77.10
30290;DHT22;17105;55.652;37.710;2023-02-20T03:29:08;-1.40;77.10
30290;DHT22;17105;55.652;37.710;2023-02-20T03:29:51;-1.40;77.20
30290;DHT22;17105;55.652;37.710;2023-02-20T03:30:31;-1.40;77.10
30290;DHT22;17105;55.652;37.710;2023-02-20T03:31:16;-1.40;77.00
30290;DHT22;17105;55.652;37.710;2023-02-20T03:31:56;-1.40;76.80
30290;DHT22;17105;55.652;37.710;2023-02-20T03:32:51;-1.40;76.60
30290;DHT22;17105;55.652;37.710;2023-02-20T03:33:46;-1.40;76.60
30290;DHT22;17105;55.652;37.710;2023-02-20T03:34:42;-1.50;76.60
30290;DHT22;17105;55.652;37.710;2023-02-20T03:35:39;-1.50;76.70
30290;DHT22;17105;55.652;37.710;2023-02-20T03:36:40;-1.50;76.90
30290;DHT22;17105;55.652;37.710;2023-02-20T03:37:37;-1.60;77.10
30290;DHT22;17105;55.652;37.710;2023-02-20T03:38:31;-1.60;77.20
30290;DHT22;17105;55.652;37.710;2023-02-20T03:39:35;-1.60;77.20
30290;DHT22;17105;55.652;37.710;2023-02-20T03:40:33;-1.60;77.10
30290;DHT22;17105;55.652;37.710;2023-02-20T03:41:28;-1.60;77.10
30290;DHT22;17105;55.652;37.710;2023-02-20T03:42:22;-1.60;77.10
30290;DHT22;17105;55.652;37.710;2023-02-20T03:43:28;-1.60;77.00
30290;DHT22;17105;55.652;37.710;2023-02-20T03:44:07;-1.60;77.00
30290;DHT22;17105;55.652;37.710;2023-02-20T03:44:43;-1.60;77.00
30290;DHT22;17105;55.652;37.710;2023-02-20T03:45:19;-1.60;77.00
30290;DHT22;17105;55.652;37.710;2023-02-20T03:45:59;-1.60;77.00
30290;DHT22;17105;55.652;37.710;2023-02-20T03:46:37;-1.60;77.40
30290;DHT22;17105;55.652;37.710;2023-02-20T03:47:14;-1.60;76.80
30290;DHT22;17105;55.652;37.710;2023-02-20T03:47:58;-1.60;76.70
30290;DHT22;17105;55.652;37.710;2023-02-20T03:48:41;-1.70;76.70
30290;DHT22;17105;55.652;37.710;2023-02-20T03:49:29;-1.70;76.70
30290;DHT22;17105;55.652;37.710;2023-02-20T03:50:17;-1.70;76.80
30290;DHT22;17105;55.652;37.710;2023-02-20T03:51:08;-1.70;76.80
30290;DHT22;17105;55.652;37.710;2023-02-20T03:52:37;-1.70;76.90
30290;DHT22;17105;55.652;37.710;2023-02-20T03:53:12;-1.80;76.90
30290;DHT22;17105;55.652;37.710;2023-02-20T03:53:47;-1.80;76.90
30290;DHT22;17105;55.652;37.710;2023-02-20T03:54:20;-1.80;76.80
30290;DHT22;17105;55.652;37.710;2023-02-20T03:54:56;-1.80;76.80
30290;DHT22;17105;55.652;37.710;2023-02-20T03:55:31;-1.90;76.80
30290;DHT22;17105;55.652;37.710;2023-02-20T03:56:13;-1.90;77.00
30290;DHT22;17105;55.652;37.710;2023-02-20T03:56:53;-1.90;77.20
30290;DHT22;17105;55.652;37.710;2023-02-20T03:57:33;-1.90;77.30
30290;DHT22;17105;55.652;37.710;2023-02-20T03:58:09;-1.90;77.30
30290;DHT22;17105;55.652;37.710;2023-02-20T03:58:47;-1.90;77.30
30290;DHT22;17105;55.652;37.710;2023-02-20T03:59:27;-1.90;77.20
30290;DHT22;17105;55.652;37.710;2023-02-20T04:00:07;-1.90;77.10
30290;DHT22;17105;55.652;37.710;2023-02-20T04:00:58;-1.90;77.00
30290;DHT22;17105;55.652;37.710;2023-02-20T04:01:34;-2.00;77.10
30290;DHT22;17105;55.652;37.710;2023-02-20T04:02:14;-2.00;77.20
30290;DHT22;17105;55.652;37.710;2023-02-20T04:02:52;-2.00;77.20
30290;DHT22;17105;55.652;37.710;2023-02-20T04:03:34;-2.00;77.40
30290;DHT22;17105;55.652;37.710;2023-02-20T04:04:15;-2.10;77.50
30290;DHT22;17105;55.652;37.710;2023-02-20T04:04:52;-2.00;77.60
30290;DHT22;17105;55.652;37.710;2023-02-20T04:05:31;-2.00;77.60
30290;DHT22;17105;55.652;37.710;2023-02-20T04:06:07;-2.00;77.70
30290;DHT22;17105;55.652;37.710;2023-02-20T04:06:44;-2.10;77.50
30290;DHT22;17105;55.652;37.710;2023-02-20T04:07:24;-2.00;77.50
30290;DHT22;17105;55.652;37.710;2023-02-20T04:08:07;-2.00;77.40
30290;DHT22;17105;55.652;37.710;2023-02-20T04:08:45;-2.10;77.40
30290;DHT22;17105;55.652;37.710;2023-02-20T04:09:25;-2.10;77.40
30290;DHT22;17105;55.652;37.710;2023-02-20T04:10:05;-2.00;77.60
30290;DHT22;17105;55.652;37.710;2023-02-20T04:10:44;-2.10;77.50
30290;DHT22;17105;55.652;37.710;2023-02-20T04:11:24;-2.10;77.50
30290;DHT22;17105;55.652;37.710;2023-02-20T04:12:03;-2.00;77.60
30290;DHT22;17105;55.652;37.710;2023-02-20T04:12:42;-2.00;77.50
30290;DHT22;17105;55.652;37.710;2023-02-20T04:13:17;-2.00;77.40
30290;DHT22;17105;55.652;37.710;2023-02-20T04:13:54;-2.10;77.30